sensor_id;sensor_type;location;lat;lon;timestamp;pressure;altitude;pressure_sealevel;temperature;humidity
75699;BME280;64313;51.018;13.742;2022-11-06T00:01:12;100148.75;;;5.08;77.96
75699;BME280;64313;51.018;13.742;2022-11-06T00:03:38;100165.66;;;5.07;77.95
75699;BME280;64313;51.018;13.742;2022-11-06T00:06:09;100155.88;;;5.08;77.80
75699;BME280;64313;51.018;13.742;2022-11-06T00:08:54;100163.31;;;5.04;77.79
75699;BME280;64313;51.018;13.742;2022-11-06T00:11:20;100166.91;;;5.03;77.71
75699;BME280;64313;51.018;13.742;2022-11-06T00:13:45;100166.41;;;4.99;77.80
75699;BME280;64313;51.018;13.742;2022-11-06T00:16:17;100164.50;;;4.92;77.66
75699;BME280;64313;51.018;13.742;2022-11-06T00:18:42;100167.63;;;4.87;77.73
75699;BME280;64313;51.018;13.742;2022-11-06T00:21:15;100167.06;;;4.84;77.83
75699;BME280;64313;51.018;13.742;2022-11-06T00:23:41;100166.09;;;4.85;77.67
75699;BME280;64313;51.018;13.742;2022-11-06T00:26:08;100162.63;;;4.84;77.64
75699;BME280;64313;51.018;13.742;2022-11-06T00:28:34;100159.59;;;4.79;78.08
75699;BME280;64313;51.018;13.742;2022-11-06T00:31:05;100157.09;;;4.77;78.30
75699;BME280;64313;51.018;13.742;2022-11-06T00:33:31;100152.47;;;4.80;77.97
75699;BME280;64313;51.018;13.742;2022-11-06T00:35:57;100151.66;;;4.79;78.26
75699;BME280;64313;51.018;13.742;2022-11-06T00:38:23;100148.00;;;4.80;78.13
75699;BME280;64313;51.018;13.742;2022-11-06T00:40:49;100149.84;;;4.80;78.09
75699;BME280;64313;51.018;13.742;2022-11-06T00:43:15;100157.09;;;4.77;77.78
75699;BME280;64313;51.018;13.742;2022-11-06T00:45:40;100157.78;;;4.80;77.80
75699;BME280;64313;51.018;13.742;2022-11-06T00:48:05;100155.56;;;4.75;77.94
75699;BME280;64313;51.018;13.742;2022-11-06T00:50:31;100147.94;;;4.72;77.77
75699;BME280;64313;51.018;13.742;2022-11-06T00:52:57;100154.75;;;4.74;77.41
75699;BME280;64313;51.018;13.742;2022-11-06T00:55:23;100155.19;;;4.70;77.68
75699;BME280;64313;51.018;13.742;2022-11-06T00:57:48;100157.84;;;4.70;77.99
75699;BME280;64313;51.018;13.742;2022-11-06T01:00:14;100155.50;;;4.67;78.54
75699;BME280;64313;51.018;13.742;2022-11-06T01:02:43;100159.41;;;4.63;78.62
75699;BME280;64313;51.018;13.742;2022-11-06T01:05:09;100155.25;;;4.60;78.69
75699;BME280;64313;51.018;13.742;2022-11-06T01:07:35;100153.75;;;4.58;78.34
75699;BME280;64313;51.018;13.742;2022-11-06T01:10:00;100155.00;;;4.53;78.81
75699;BME280;64313;51.018;13.742;2022-11-06T01:12:26;100153.88;;;4.56;78.26
75699;BME280;64313;51.018;13.742;2022-11-06T01:14:51;100149.28;;;4.58;78.12
75699;BME280;64313;51.018;13.742;2022-11-06T01:17:17;100150.13;;;4.59;78.07
75699;BME280;64313;51.018;13.742;2022-11-06T01:19:42;100155.00;;;4.53;77.92
75699;BME280;64313;51.018;13.742;2022-11-06T01:22:08;100159.66;;;4.51;77.82
75699;BME280;64313;51.018;13.742;2022-11-06T01:24:34;100152.28;;;4.45;78.00
75699;BME280;64313;51.018;13.742;2022-11-06T01:27:00;100151.31;;;4.46;77.85
75699;BME280;64313;51.018;13.742;2022-11-06T01:29:25;100157.56;;;4.45;78.13
75699;BME280;64313;51.018;13.742;2022-11-06T01:31:51;100151.91;;;4.40;77.84
75699;BME280;64313;51.018;13.742;2022-11-06T01:34:18;100149.13;;;4.42;77.89
75699;BME280;64313;51.018;13.742;2022-11-06T01:36:44;100145.25;;;4.36;77.85
75699;BME280;64313;51.018;13.742;2022-11-06T01:39:12;100149.03;;;4.33;77.92
75699;BME280;64313;51.018;13.742;2022-11-06T01:41:42;100145.00;;;4.29;78.50
75699;BME280;64313;51.018;13.742;2022-11-06T01:46:56;100145.44;;;4.25;78.43
75699;BME280;64313;51.018;13.742;2022-11-06T01:49:21;100139.47;;;4.23;78.22
75699;BME280;64313;51.018;13.742;2022-11-06T01:51:51;100133.22;;;4.24;78.48
75699;BME280;64313;51.018;13.742;2022-11-06T01:54:19;100131.81;;;4.20;78.48
75699;BME280;64313;51.018;13.742;2022-11-06T01:56:46;100137.94;;;4.20;78.42
75699;BME280;64313;51.018;13.742;2022-11-06T01:59:15;100138.09;;;4.19;78.52
75699;BME280;64313;51.018;13.742;2022-11-06T02:01:42;100137.56;;;4.15;78.56
75699;BME280;64313;51.018;13.742;2022-11-06T02:04:17;100132.44;;;4.14;78.94
75699;BME280;64313;51.018;13.742;2022-11-06T02:06:45;100136.88;;;4.13;78.80
75699;BME280;64313;51.018;13.742;2022-11-06T02:09:12;100121.16;;;4.11;78.98
75699;BME280;64313;51.018;13.742;2022-11-06T02:15:11;100123.09;;;4.09;79.54
75699;BME280;64313;51.018;13.742;2022-11-06T02:20:45;100108.06;;;4.10;79.23
75699;BME280;64313;51.018;13.742;2022-11-06T02:23:29;100111.84;;;4.07;79.79
75699;BME280;64313;51.018;13.742;2022-11-06T02:28:28;100103.78;;;4.09;79.64
75699;BME280;64313;51.018;13.742;2022-11-06T02:31:02;100105.59;;;4.08;79.68
75699;BME280;64313;51.018;13.742;2022-11-06T02:33:35;100108.50;;;4.05;79.77
75699;BME280;64313;51.018;13.742;2022-11-06T02:36:06;100110.19;;;4.06;79.58
75699;BME280;64313;51.018;13.742;2022-11-06T02:38:42;100106.72;;;4.06;79.66
75699;BME280;64313;51.018;13.742;2022-11-06T02:41:16;100109.34;;;4.06;79.50
75699;BME280;64313;51.018;13.742;2022-11-06T02:43:47;100106.84;;;4.04;79.84
75699;BME280;64313;51.018;13.742;2022-11-06T02:46:17;100103.50;;;4.02;79.47
75699;BME280;64313;51.018;13.742;2022-11-06T02:48:52;100099.53;;;3.98;80.06
75699;BME280;64313;51.018;13.742;2022-11-06T02:51:24;100104.63;;;4.00;79.67
75699;BME280;64313;51.018;13.742;2022-11-06T02:53:52;100095.88;;;3.99;79.22
75699;BME280;64313;51.018;13.742;2022-11-06T02:56:23;100095.19;;;3.97;79.39
75699;BME280;64313;51.018;13.742;2022-11-06T02:58:56;100103.13;;;3.97;79.19
75699;BME280;64313;51.018;13.742;2022-11-06T03:01:28;100094.50;;;3.95;78.86
75699;BME280;64313;51.018;13.742;2022-11-06T03:04:00;100096.63;;;3.92;79.27
75699;BME280;64313;51.018;13.742;2022-11-06T03:06:41;100095.78;;;3.91;79.11
75699;BME280;64313;51.018;13.742;2022-11-06T03:09:17;100094.94;;;3.90;79.38
75699;BME280;64313;51.018;13.742;2022-11-06T03:11:46;100088.28;;;3.86;79.83
75699;BME280;64313;51.018;13.742;2022-11-06T03:14:42;100090.09;;;3.86;79.83
75699;BME280;64313;51.018;13.742;2022-11-06T03:22:08;100091.75;;;3.87;79.85
75699;BME280;64313;51.018;13.742;2022-11-06T03:24:58;100097.34;;;3.84;79.93
75699;BME280;64313;51.018;13.742;2022-11-06T03:27:48;100094.00;;;3.82;79.84
75699;BME280;64313;51.018;13.742;2022-11-06T03:30:16;100094.00;;;3.82;80.06
75699;BME280;64313;51.018;13.742;2022-11-06T03:32:48;100088.72;;;3.82;79.86
75699;BME280;64313;51.018;13.742;2022-11-06T03:38:54;100091.50;;;3.80;80.19
75699;BME280;64313;51.018;13.742;2022-11-06T03:43:58;100091.81;;;3.77;80.48
75699;BME280;64313;51.018;13.742;2022-11-06T03:46:26;100082.06;;;3.78;80.06
75699;BME280;64313;51.018;13.742;2022-11-06T03:49:04;100086.38;;;3.79;80.37
75699;BME280;64313;51.018;13.742;2022-11-06T03:51:43;100085.56;;;3.78;80.39
75699;BME280;64313;51.018;13.742;2022-11-06T03:54:28;100089.16;;;3.77;79.97
75699;BME280;64313;51.018;13.742;2022-11-06T03:59:33;100086.13;;;3.72;80.37
75699;BME280;64313;51.018;13.742;2022-11-06T04:02:00;100093.22;;;3.72;80.65
75699;BME280;64313;51.018;13.742;2022-11-06T04:04:34;100092.41;;;3.71;80.19
75699;BME280;64313;51.018;13.742;2022-11-06T04:07:14;100094.22;;;3.71;80.10
75699;BME280;64313;51.018;13.742;2022-11-06T04:09:43;100094.47;;;3.67;80.23
75699;BME280;64313;51.018;13.742;2022-11-06T04:12:29;100086.72;;;3.66;80.17
75699;BME280;64313;51.018;13.742;2022-11-06T04:15:30;100079.75;;;3.65;80.60
75699;BME280;64313;51.018;13.742;2022-11-06T04:17:57;100081.44;;;3.66;80.46
75699;BME280;64313;51.018;13.742;2022-11-06T04:20:23;100079.91;;;3.63;80.16
75699;BME280;64313;51.018;13.742;2022-11-06T04:23:15;100084.50;;;3.61;80.34
75699;BME280;64313;51.018;13.742;2022-11-06T04:26:03;100088.56;;;3.56;80.39
75699;BME280;64313;51.018;13.742;2022-11-06T04:29:02;100086.06;;;3.54;80.22
75699;BME280;64313;51.018;13.742;2022-11-06T04:31:48;100089.69;;;3.53;80.30
75699;BME280;64313;51.018;13.742;2022-11-06T04:34:43;100075.78;;;3.51;80.25
75699;BME280;64313;51.018;13.742;2022-11-06T04:37:20;100078.44;;;3.51;80.17
75699;BME280;64313;51.018;13.742;2022-11-06T04:39:59;100078.44;;;3.51;80.40
75699;BME280;64313;51.018;13.742;2022-11-06T04:42:41;100073.28;;;3.50;80.07
75699;BME280;64313;51.018;13.742;2022-11-06T04:45:14;100067.47;;;3.46;80.50
75699;BME280;64313;51.018;13.742;2022-11-06T04:47:42;100073.56;;;3.46;80.22
75699;BME280;64313;51.018;13.742;2022-11-06T04:50:10;100066.63;;;3.45;80.32
75699;BME280;64313;51.018;13.742;2022-11-06T04:52:37;100064.94;;;3.44;80.27
75699;BME280;64313;51.018;13.742;2022-11-06T04:55:05;100069.28;;;3.45;80.08
75699;BME280;64313;51.018;13.742;2022-11-06T04:57:30;100070.22;;;3.44;79.68
75699;BME280;64313;51.018;13.742;2022-11-06T04:59:56;100063.28;;;3.43;79.60
75699;BME280;64313;51.018;13.742;2022-11-06T05:02:22;100059.97;;;3.41;79.98
75699;BME280;64313;51.018;13.742;2022-11-06T05:04:47;100060.09;;;3.40;80.15
75699;BME280;64313;51.018;13.742;2022-11-06T05:07:14;100062.72;;;3.40;80.23
75699;BME280;64313;51.018;13.742;2022-11-06T05:09:40;100053.97;;;3.39;79.91
75699;BME280;64313;51.018;13.742;2022-11-06T05:12:05;100056.63;;;3.39;79.61
75699;BME280;64313;51.018;13.742;2022-11-06T05:14:33;100047.88;;;3.39;79.53
75699;BME280;64313;51.018;13.742;2022-11-06T05:16:59;100051.63;;;3.36;80.01
75699;BME280;64313;51.018;13.742;2022-11-06T05:19:26;100044.81;;;3.34;80.33
75699;BME280;64313;51.018;13.742;2022-11-06T05:21:52;100042.19;;;3.34;80.47
75699;BME280;64313;51.018;13.742;2022-11-06T05:24:36;100039.69;;;3.32;80.36
75699;BME280;64313;51.018;13.742;2022-11-06T05:27:01;100038.84;;;3.32;80.42
75699;BME280;64313;51.018;13.742;2022-11-06T05:29:26;100032.75;;;3.31;80.74
75699;BME280;64313;51.018;13.742;2022-11-06T05:31:53;100038.84;;;3.32;80.26
75699;BME280;64313;51.018;13.742;2022-11-06T05:34:19;100034.41;;;3.32;80.72
75699;BME280;64313;51.018;13.742;2022-11-06T05:36:44;100036.22;;;3.32;80.57
75699;BME280;64313;51.018;13.742;2022-11-06T05:39:11;100031.75;;;3.32;80.14
75699;BME280;64313;51.018;13.742;2022-11-06T05:41:37;100040.53;;;3.33;80.35
75699;BME280;64313;51.018;13.742;2022-11-06T05:44:02;100037.88;;;3.33;80.97
75699;BME280;64313;51.018;13.742;2022-11-06T05:46:27;100042.31;;;3.32;80.95
75699;BME280;64313;51.018;13.742;2022-11-06T05:48:53;100048.47;;;3.33;80.58
75699;BME280;64313;51.018;13.742;2022-11-06T05:51:18;100045.94;;;3.31;80.82
75699;BME280;64313;51.018;13.742;2022-11-06T05:53:44;100044.44;;;3.29;81.03
75699;BME280;64313;51.018;13.742;2022-11-06T05:56:09;100052.22;;;3.30;80.64
75699;BME280;64313;51.018;13.742;2022-11-06T05:58:35;100050.41;;;3.31;80.91
75699;BME280;64313;51.018;13.742;2022-11-06T06:01:01;100053.03;;;3.31;80.81
75699;BME280;64313;51.018;13.742;2022-11-06T06:03:26;100051.38;;;3.30;80.82
75699;BME280;64313;51.018;13.742;2022-11-06T06:05:51;100048.59;;;3.31;80.59
75699;BME280;64313;51.018;13.742;2022-11-06T06:08:17;100048.59;;;3.31;80.89
75699;BME280;64313;51.018;13.742;2022-11-06T06:10:43;100041.66;;;3.30;80.41
75699;BME280;64313;51.018;13.742;2022-11-06T06:13:09;100046.38;;;3.27;80.66
75699;BME280;64313;51.018;13.742;2022-11-06T06:15:40;100052.66;;;3.25;80.83
75699;BME280;64313;51.018;13.742;2022-11-06T06:18:07;100050.84;;;3.26;80.52
75699;BME280;64313;51.018;13.742;2022-11-06T06:20:33;100055.13;;;3.27;81.07
75699;BME280;64313;51.018;13.742;2022-11-06T06:22:59;100052.66;;;3.25;80.77
75699;BME280;64313;51.018;13.742;2022-11-06T06:25:26;100051.78;;;3.25;80.92
75699;BME280;64313;51.018;13.742;2022-11-06T06:27:52;100056.41;;;3.23;80.90
75699;BME280;64313;51.018;13.742;2022-11-06T06:30:17;100057.22;;;3.23;80.61
75699;BME280;64313;51.018;13.742;2022-11-06T06:32:43;100059.88;;;3.23;81.23
75699;BME280;64313;51.018;13.742;2022-11-06T06:35:09;100060.56;;;3.25;80.93
75699;BME280;64313;51.018;13.742;2022-11-06T06:37:35;100072.25;;;3.23;81.32
75699;BME280;64313;51.018;13.742;2022-11-06T06:40:01;100067.09;;;3.21;81.29
75699;BME280;64313;51.018;13.742;2022-11-06T06:42:28;100074.19;;;3.21;81.37
75699;BME280;64313;51.018;13.742;2022-11-06T06:44:54;100068.75;;;3.22;80.90
75699;BME280;64313;51.018;13.742;2022-11-06T06:47:19;100077.53;;;3.23;81.12
75699;BME280;64313;51.018;13.742;2022-11-06T06:49:44;100064.34;;;3.23;81.44
75699;BME280;64313;51.018;13.742;2022-11-06T06:52:10;100076.41;;;3.25;81.41
75699;BME280;64313;51.018;13.742;2022-11-06T06:54:36;100080.19;;;3.23;82.08
75699;BME280;64313;51.018;13.742;2022-11-06T06:57:03;100081.72;;;3.25;81.55
75699;BME280;64313;51.018;13.742;2022-11-06T06:59:28;100083.66;;;3.23;82.09
75699;BME280;64313;51.018;13.742;2022-11-06T07:01:54;100086.13;;;3.25;82.48
75699;BME280;64313;51.018;13.742;2022-11-06T07:04:20;100095.63;;;3.28;82.14
75699;BME280;64313;51.018;13.742;2022-11-06T07:06:45;100087.53;;;3.29;82.38
75699;BME280;64313;51.018;13.742;2022-11-06T07:09:11;100088.22;;;3.31;82.53
75699;BME280;64313;51.018;13.742;2022-11-06T07:11:36;100090.88;;;3.31;82.51
75699;BME280;64313;51.018;13.742;2022-11-06T07:14:02;100090.03;;;3.31;82.86
75699;BME280;64313;51.018;13.742;2022-11-06T07:16:27;100088.22;;;3.31;82.35
75699;BME280;64313;51.018;13.742;2022-11-06T07:18:54;100089.75;;;3.34;82.61
75699;BME280;64313;51.018;13.742;2022-11-06T07:21:20;100093.22;;;3.34;82.75
75699;BME280;64313;51.018;13.742;2022-11-06T07:23:45;100091.41;;;3.35;83.29
75699;BME280;64313;51.018;13.742;2022-11-06T07:26:11;100086.81;;;3.37;83.20
75699;BME280;64313;51.018;13.742;2022-11-06T07:28:36;100095.28;;;3.40;83.17
75699;BME280;64313;51.018;13.742;2022-11-06T07:31:04;100086.09;;;3.44;83.28
75699;BME280;64313;51.018;13.742;2022-11-06T07:33:31;100091.94;;;3.48;84.12
75699;BME280;64313;51.018;13.742;2022-11-06T07:36:01;100098.03;;;3.49;83.58
75699;BME280;64313;51.018;13.742;2022-11-06T07:38:26;100097.63;;;3.53;83.46
75699;BME280;64313;51.018;13.742;2022-11-06T07:40:51;100091.22;;;3.56;83.77
75699;BME280;64313;51.018;13.742;2022-11-06T07:43:17;100091.75;;;3.59;84.05
75699;BME280;64313;51.018;13.742;2022-11-06T07:45:43;100091.44;;;3.62;84.03
75699;BME280;64313;51.018;13.742;2022-11-06T07:48:09;100087.69;;;3.65;84.50
75699;BME280;64313;51.018;13.742;2022-11-06T07:50:34;100089.88;;;3.69;84.59
75699;BME280;64313;51.018;13.742;2022-11-06T07:53:03;100089.31;;;3.76;84.16
75699;BME280;64313;51.018;13.742;2022-11-06T07:55:28;100088.72;;;3.82;83.86
75699;BME280;64313;51.018;13.742;2022-11-06T07:57:54;100093.41;;;3.88;84.65
75699;BME280;64313;51.018;13.742;2022-11-06T08:00:19;100097.16;;;3.95;83.88
75699;BME280;64313;51.018;13.742;2022-11-06T08:02:50;100093.94;;;4.01;83.85
75699;BME280;64313;51.018;13.742;2022-11-06T08:05:16;100091.50;;;4.08;84.48
75699;BME280;64313;51.018;13.742;2022-11-06T08:07:42;100092.75;;;4.14;85.32
75699;BME280;64313;51.018;13.742;2022-11-06T08:10:07;100086.03;;;4.19;84.55
75699;BME280;64313;51.018;13.742;2022-11-06T08:12:33;100077.34;;;4.27;84.57
75699;BME280;64313;51.018;13.742;2022-11-06T08:14:58;100076.59;;;4.34;84.24
75699;BME280;64313;51.018;13.742;2022-11-06T08:17:24;100073.19;;;4.42;84.05
75699;BME280;64313;51.018;13.742;2022-11-06T08:19:49;100075.09;;;4.50;84.08
75699;BME280;64313;51.018;13.742;2022-11-06T08:22:14;100073.50;;;4.57;85.12
75699;BME280;64313;51.018;13.742;2022-11-06T08:24:40;100070.91;;;4.65;84.38
75699;BME280;64313;51.018;13.742;2022-11-06T08:27:05;100062.22;;;4.73;85.69
75699;BME280;64313;51.018;13.742;2022-11-06T08:29:31;100063.25;;;4.80;85.53
75699;BME280;64313;51.018;13.742;2022-11-06T08:31:57;100057.88;;;4.90;84.58
75699;BME280;64313;51.018;13.742;2022-11-06T08:34:22;100057.94;;;4.98;85.20
75699;BME280;64313;51.018;13.742;2022-11-06T08:36:48;100061.50;;;5.07;84.75
75699;BME280;64313;51.018;13.742;2022-11-06T08:39:16;100059.84;;;5.14;85.76
75699;BME280;64313;51.018;13.742;2022-11-06T08:41:42;100051.13;;;5.21;84.06
75699;BME280;64313;51.018;13.742;2022-11-06T08:44:10;100053.53;;;5.33;84.89
75699;BME280;64313;51.018;13.742;2022-11-06T08:46:35;100050.09;;;5.40;84.98
75699;BME280;64313;51.018;13.742;2022-11-06T08:49:01;100043.16;;;5.48;85.16
75699;BME280;64313;51.018;13.742;2022-11-06T08:51:26;100036.41;;;5.53;83.88
75699;BME280;64313;51.018;13.742;2022-11-06T08:53:51;100044.38;;;5.61;84.45
75699;BME280;64313;51.018;13.742;2022-11-06T08:56:17;100045.59;;;5.67;84.55
75699;BME280;64313;51.018;13.742;2022-11-06T08:58:42;100045.75;;;5.74;83.70
75699;BME280;64313;51.018;13.742;2022-11-06T09:01:08;100044.00;;;5.82;84.08
75699;BME280;64313;51.018;13.742;2022-11-06T09:03:33;100042.50;;;5.88;84.25
75699;BME280;64313;51.018;13.742;2022-11-06T09:05:59;100051.53;;;5.95;83.95
75699;BME280;64313;51.018;13.742;2022-11-06T09:08:25;100047.25;;;6.02;84.10
75699;BME280;64313;51.018;13.742;2022-11-06T09:10:50;100038.47;;;6.10;84.54
75699;BME280;64313;51.018;13.742;2022-11-06T09:13:16;100025.38;;;6.17;83.91
75699;BME280;64313;51.018;13.742;2022-11-06T09:15:41;100024.38;;;6.26;83.86
75699;BME280;64313;51.018;13.742;2022-11-06T09:18:07;100017.25;;;6.35;83.95
75699;BME280;64313;51.018;13.742;2022-11-06T09:20:33;100019.94;;;6.43;83.51
75699;BME280;64313;51.018;13.742;2022-11-06T09:23:00;100020.91;;;6.50;83.90
75699;BME280;64313;51.018;13.742;2022-11-06T09:25:26;100018.09;;;6.60;83.49
75699;BME280;64313;51.018;13.742;2022-11-06T09:27:52;100012.81;;;6.68;83.13
75699;BME280;64313;51.018;13.742;2022-11-06T09:30:19;100006.66;;;6.76;83.93
75699;BME280;64313;51.018;13.742;2022-11-06T09:32:51;100010.28;;;6.83;83.40
75699;BME280;64313;51.018;13.742;2022-11-06T09:35:18;100012.94;;;6.91;83.22
75699;BME280;64313;51.018;13.742;2022-11-06T09:37:44;100010.28;;;6.99;83.05
75699;BME280;64313;51.018;13.742;2022-11-06T09:40:19;100014.75;;;7.07;82.70
75699;BME280;64313;51.018;13.742;2022-11-06T09:45:18;100006.75;;;7.23;82.79
75699;BME280;64313;51.018;13.742;2022-11-06T09:47:53;100011.84;;;7.33;82.28
75699;BME280;64313;51.018;13.742;2022-11-06T09:50:24;100006.34;;;7.43;82.10
75699;BME280;64313;51.018;13.742;2022-11-06T09:53:16;100011.47;;;7.52;82.20
75699;BME280;64313;51.018;13.742;2022-11-06T09:55:45;100003.44;;;7.61;82.00
75699;BME280;64313;51.018;13.742;2022-11-06T09:58:25;100003.06;;;7.72;82.00
75699;BME280;64313;51.018;13.742;2022-11-06T10:00:53;99998.53;;;7.80;81.70
75699;BME280;64313;51.018;13.742;2022-11-06T10:03:28;99995.00;;;7.88;81.37
75699;BME280;64313;51.018;13.742;2022-11-06T10:05:56;99984.13;;;7.98;81.06
75699;BME280;64313;51.018;13.742;2022-11-06T10:08:22;99981.59;;;8.05;81.09
75699;BME280;64313;51.018;13.742;2022-11-06T10:11:02;99970.72;;;8.14;80.81
75699;BME280;64313;51.018;13.742;2022-11-06T10:21:24;99951.31;;;8.52;79.47
75699;BME280;64313;51.018;13.742;2022-11-06T10:26:40;99938.84;;;8.67;79.47
75699;BME280;64313;51.018;13.742;2022-11-06T10:34:41;99925.09;;;8.93;77.97
75699;BME280;64313;51.018;13.742;2022-11-06T10:37:15;99928.47;;;9.02;77.00
75699;BME280;64313;51.018;13.742;2022-11-06T10:39:42;99919.38;;;9.11;76.24
75699;BME280;64313;51.018;13.742;2022-11-06T10:42:23;99914.97;;;9.18;76.70
75699;BME280;64313;51.018;13.742;2022-11-06T10:45:05;99922.69;;;9.28;76.13
75699;BME280;64313;51.018;13.742;2022-11-06T10:48:13;99911.47;;;9.32;76.32
75699;BME280;64313;51.018;13.742;2022-11-06T10:51:23;99915.88;;;9.40;75.51
75699;BME280;64313;51.018;13.742;2022-11-06T10:56:41;99897.34;;;9.53;73.46
75699;BME280;64313;51.018;13.742;2022-11-06T10:59:08;99890.00;;;9.56;75.26
75699;BME280;64313;51.018;13.742;2022-11-06T11:01:33;99890.25;;;9.61;75.56
75699;BME280;64313;51.018;13.742;2022-11-06T11:03:58;99881.47;;;9.67;74.17
75699;BME280;64313;51.018;13.742;2022-11-06T11:06:24;99885.03;;;9.74;73.44
75699;BME280;64313;51.018;13.742;2022-11-06T11:08:49;99880.41;;;9.83;73.91
75699;BME280;64313;51.018;13.742;2022-11-06T11:13:50;99863.94;;;10.01;71.08
75699;BME280;64313;51.018;13.742;2022-11-06T11:16:38;99863.59;;;10.10;67.73
75699;BME280;64313;51.018;13.742;2022-11-06T11:19:23;99857.94;;;10.20;68.22
75699;BME280;64313;51.018;13.742;2022-11-06T11:21:55;99842.25;;;10.32;67.82
75699;BME280;64313;51.018;13.742;2022-11-06T11:24:21;99841.09;;;10.41;66.90
75699;BME280;64313;51.018;13.742;2022-11-06T11:26:48;99838.88;;;10.51;66.56
75699;BME280;64313;51.018;13.742;2022-11-06T11:29:20;99840.97;;;10.56;65.42
75699;BME280;64313;51.018;13.742;2022-11-06T11:31:50;99834.00;;;10.61;66.89
75699;BME280;64313;51.018;13.742;2022-11-06T11:34:19;99827.44;;;10.64;67.43
75699;BME280;64313;51.018;13.742;2022-11-06T11:37:01;99822.34;;;10.69;66.53
75699;BME280;64313;51.018;13.742;2022-11-06T11:39:41;99814.34;;;10.76;64.04
75699;BME280;64313;51.018;13.742;2022-11-06T11:42:23;99816.88;;;10.84;63.96
75699;BME280;64313;51.018;13.742;2022-11-06T11:47:33;99809.06;;;10.96;64.36
75699;BME280;64313;51.018;13.742;2022-11-06T11:52:47;99797.59;;;11.09;62.38
75699;BME280;64313;51.018;13.742;2022-11-06T11:55:20;99793.50;;;11.13;62.02
75699;BME280;64313;51.018;13.742;2022-11-06T11:57:49;99795.59;;;11.17;61.45
75699;BME280;64313;51.018;13.742;2022-11-06T12:00:18;99794.38;;;11.20;61.96
75699;BME280;64313;51.018;13.742;2022-11-06T12:02:47;99793.94;;;11.23;62.44
75699;BME280;64313;51.018;13.742;2022-11-06T12:05:17;99786.16;;;11.28;59.93
75699;BME280;64313;51.018;13.742;2022-11-06T12:07:56;99778.75;;;11.30;60.20
75699;BME280;64313;51.018;13.742;2022-11-06T12:10:33;99782.06;;;11.32;60.52
75699;BME280;64313;51.018;13.742;2022-11-06T12:13:02;99768.66;;;11.32;61.08
75699;BME280;64313;51.018;13.742;2022-11-06T12:15:43;99780.00;;;11.34;60.40
75699;BME280;64313;51.018;13.742;2022-11-06T12:18:15;99763.53;;;11.37;59.04
75699;BME280;64313;51.018;13.742;2022-11-06T12:21:04;99766.63;;;11.41;60.98
75699;BME280;64313;51.018;13.742;2022-11-06T12:23:45;99762.94;;;11.42;61.13
75699;BME280;64313;51.018;13.742;2022-11-06T12:29:15;99754.47;;;11.45;60.61
75699;BME280;64313;51.018;13.742;2022-11-06T12:40:14;99741.09;;;11.58;60.86
75699;BME280;64313;51.018;13.742;2022-11-06T12:45:18;99734.31;;;11.62;60.04
75699;BME280;64313;51.018;13.742;2022-11-06T12:47:54;99726.91;;;11.64;60.81
75699;BME280;64313;51.018;13.742;2022-11-06T12:50:32;99726.28;;;11.69;58.52
75699;BME280;64313;51.018;13.742;2022-11-06T12:56:18;99728.97;;;11.76;60.57
75699;BME280;64313;51.018;13.742;2022-11-06T12:58:49;99713.50;;;11.78;60.60
75699;BME280;64313;51.018;13.742;2022-11-06T13:01:30;99714.94;;;11.80;59.25
75699;BME280;64313;51.018;13.742;2022-11-06T13:04:20;99711.84;;;11.83;60.19
75699;BME280;64313;51.018;13.742;2022-11-06T13:07:22;99712.47;;;11.85;60.41
75699;BME280;64313;51.018;13.742;2022-11-06T13:12:38;99708.59;;;11.88;58.36
75699;BME280;64313;51.018;13.742;2022-11-06T13:15:26;99714.75;;;11.88;59.78
75699;BME280;64313;51.018;13.742;2022-11-06T13:17:59;99706.72;;;11.88;59.79
75699;BME280;64313;51.018;13.742;2022-11-06T13:20:51;99695.19;;;11.88;59.57
75699;BME280;64313;51.018;13.742;2022-11-06T13:23:28;99697.22;;;11.86;59.44
75699;BME280;64313;51.018;13.742;2022-11-06T13:31:12;99696.22;;;11.80;58.89
75699;BME280;64313;51.018;13.742;2022-11-06T13:33:46;99684.88;;;11.78;59.43
75699;BME280;64313;51.018;13.742;2022-11-06T13:36:13;99680.94;;;11.74;59.51
75699;BME280;64313;51.018;13.742;2022-11-06T13:39:28;99691.25;;;11.70;58.59
75699;BME280;64313;51.018;13.742;2022-11-06T13:41:31;99690.25;;;11.65;58.05
75699;BME280;64313;51.018;13.742;2022-11-06T13:48:54;99675.63;;;11.54;59.46
75699;BME280;64313;51.018;13.742;2022-11-06T14:11:04;99671.72;;;11.17;60.86
75699;BME280;64313;51.018;13.742;2022-11-06T14:13:34;99663.47;;;11.12;60.86
75699;BME280;64313;51.018;13.742;2022-11-06T14:16:06;99665.50;;;11.10;61.47
75699;BME280;64313;51.018;13.742;2022-11-06T14:18:35;99660.78;;;11.05;61.53
75699;BME280;64313;51.018;13.742;2022-11-06T14:26:39;99646.97;;;10.95;63.14
75699;BME280;64313;51.018;13.742;2022-11-06T14:34:39;99648.19;;;10.86;62.99
75699;BME280;64313;51.018;13.742;2022-11-06T14:44:50;99643.19;;;10.63;63.89
75699;BME280;64313;51.018;13.742;2022-11-06T14:53:00;99635.31;;;10.41;64.76
75699;BME280;64313;51.018;13.742;2022-11-06T14:55:54;99636.94;;;10.35;64.91
75699;BME280;64313;51.018;13.742;2022-11-06T14:58:23;99634.25;;;10.29;65.46
75699;BME280;64313;51.018;13.742;2022-11-06T15:03:36;99634.78;;;10.17;65.45
75699;BME280;64313;51.018;13.742;2022-11-06T15:06:32;99625.91;;;10.10;65.91
75699;BME280;64313;51.018;13.742;2022-11-06T15:09:42;99616.84;;;10.05;66.13
75699;BME280;64313;51.018;13.742;2022-11-06T15:12:01;99619.09;;;10.01;66.43
75699;BME280;64313;51.018;13.742;2022-11-06T15:17:11;99612.47;;;9.90;66.55
75699;BME280;64313;51.018;13.742;2022-11-06T15:19:42;99605.25;;;9.84;67.09
75699;BME280;64313;51.018;13.742;2022-11-06T15:24:52;99615.03;;;9.70;67.35